Time;durP1;ratioP1;P1;durP2;ratioP2;P2;SDS_P1;SDS_P2;PMS_P1;PMS_P2;Temp;Humidity;BMP_temperature;BMP_pressure;BME280_temperature;BME280_humidity;BME280_pressure;Samples;Min_cycle;Max_cycle;Signal;HPM_P1;HPM_P2
2022/07/04 00:02:19;;;;;;;1.75;1.27;;;16.70;60.70;;;;;;5004817;28;20107;-76
2022/07/04 00:04:44;;;;;;;2.55;1.10;;;16.60;60.10;;;;;;5023040;28;20048;-77
2022/07/04 00:07:10;;;;;;;3.45;1.10;;;16.50;61.20;;;;;;5024614;28;20029;-77
2022/07/04 00:09:36;;;;;;;5.13;1.02;;;16.40;61.50;;;;;;4996042;28;20063;-77
2022/07/04 00:12:01;;;;;;;1.35;0.93;;;16.40;60.80;;;;;;5020231;28;20149;-76
2022/07/04 00:14:27;;;;;;;4.80;1.40;;;16.40;61.20;;;;;;5040998;28;20037;-77
2022/07/04 00:16:52;;;;;;;2.55;0.90;;;16.30;61.30;;;;;;5021144;28;20412;-76
2022/07/04 00:19:18;;;;;;;3.10;0.80;;;16.30;61.10;;;;;;5023763;28;20052;-77
2022/07/04 00:21:44;;;;;;;4.30;1.10;;;16.20;61.20;;;;;;5022107;28;20033;-76
2022/07/04 00:24:09;;;;;;;1.42;1.17;;;16.20;61.30;;;;;;5008653;28;20492;-76
2022/07/04 00:26:35;;;;;;;2.58;1.10;;;16.20;63.00;;;;;;5008995;28;20090;-77
2022/07/04 00:29:00;;;;;;;3.92;1.33;;;16.10;61.50;;;;;;5021816;28;20029;-77
2022/07/04 00:31:26;;;;;;;2.95;1.13;;;16.10;63.10;;;;;;5006352;28;20048;-77
2022/07/04 00:33:51;;;;;;;2.70;1.13;;;16.00;61.80;;;;;;5025341;28;20037;-77
2022/07/04 00:36:17;;;;;;;3.22;1.52;;;16.00;62.30;;;;;;5041338;28;20048;-76
2022/07/04 00:38:43;;;;;;;2.03;1.00;;;16.00;62.30;;;;;;5022149;28;20104;-76
2022/07/04 00:41:08;;;;;;;2.63;1.00;;;16.00;62.70;;;;;;5021781;28;20022;-75
2022/07/04 00:43:34;;;;;;;3.00;1.25;;;16.00;63.30;;;;;;5004480;28;20029;-76
2022/07/04 00:46:05;;;;;;;4.47;1.67;;;16.00;64.30;;;;;;5003718;28;20531;-77
2022/07/04 00:48:31;;;;;;;6.93;1.42;;;15.70;62.60;;;;;;4995952;28;20127;-76
2022/07/04 00:50:57;;;;;;;3.50;1.48;;;15.60;67.00;;;;;;5003887;28;20041;-76
2022/07/04 00:53:23;;;;;;;2.15;1.35;;;15.40;65.30;;;;;;5008639;28;20612;-76
2022/07/04 00:55:52;;;;;;;4.03;1.88;;;15.50;64.00;;;;;;5006748;28;20052;-77
2022/07/04 00:58:21;;;;;;;1.15;1.02;;;15.60;66.60;;;;;;5005857;28;20507;-77
2022/07/04 01:00:47;;;;;;;2.03;1.20;;;15.50;64.10;;;;;;5004199;28;20029;-76
2022/07/04 01:03:13;;;;;;;2.58;1.42;;;15.60;64.90;;;;;;5004373;28;20025;-76
2022/07/04 01:05:39;;;;;;;2.67;1.40;;;15.60;65.30;;;;;;4995579;28;20033;-76
2022/07/04 01:08:04;;;;;;;2.08;1.52;;;15.40;67.70;;;;;;5006859;28;20056;-77
2022/07/04 01:10:30;;;;;;;3.67;1.60;;;15.20;69.60;;;;;;5009544;28;20033;-77
2022/07/04 01:12:56;;;;;;;3.63;1.63;;;15.10;67.70;;;;;;5019574;28;20124;-77
2022/07/04 01:15:21;;;;;;;4.05;1.40;;;15.00;65.90;;;;;;5005465;28;20033;-76
2022/07/04 01:17:47;;;;;;;2.40;0.82;;;15.10;64.40;;;;;;5004252;28;20583;-76
2022/07/04 01:20:13;;;;;;;3.97;1.40;;;15.20;64.50;;;;;;5007050;28;20041;-77
2022/07/04 01:22:39;;;;;;;2.75;1.80;;;15.10;65.10;;;;;;5025328;28;20025;-77
2022/07/04 01:25:05;;;;;;;3.45;1.60;;;15.10;67.40;;;;;;5026967;28;20560;-77
2022/07/04 01:27:30;;;;;;;3.10;1.60;;;15.10;65.20;;;;;;5023622;28;20021;-76
2022/07/04 01:29:56;;;;;;;2.22;1.13;;;15.20;66.80;;;;;;5008293;28;20033;-76
2022/07/04 01:32:21;;;;;;;2.38;1.30;;;15.20;66.20;;;;;;5043473;28;20021;-76
2022/07/04 01:34:47;;;;;;;3.10;1.25;;;15.20;66.90;;;;;;5025613;28;20059;-77
2022/07/04 01:37:12;;;;;;;3.75;1.83;;;15.00;65.80;;;;;;5008127;28;20036;-77
2022/07/04 01:39:38;;;;;;;1.98;1.48;;;14.90;68.80;;;;;;5042325;28;20031;-77
2022/07/04 01:42:04;;;;;;;3.35;1.42;;;14.80;66.50;;;;;;5009615;28;20155;-77
2022/07/04 01:44:30;;;;;;;5.40;1.70;;;14.90;67.00;;;;;;5021936;28;20037;-76
2022/07/04 01:46:55;;;;;;;2.70;1.23;;;14.90;67.20;;;;;;5027011;28;20096;-77
2022/07/04 01:49:21;;;;;;;3.83;1.50;;;14.70;68.90;;;;;;5008918;28;20036;-77
2022/07/04 01:51:47;;;;;;;2.95;1.45;;;14.70;66.50;;;;;;5009857;28;20033;-78
2022/07/04 01:54:13;;;;;;;3.42;1.40;;;14.90;68.20;;;;;;5021757;28;20025;-77
2022/07/04 01:56:39;;;;;;;2.22;1.13;;;14.90;67.30;;;;;;4995248;28;20025;-77
2022/07/04 01:59:05;;;;;;;2.95;1.40;;;14.70;66.80;;;;;;5023238;28;20556;-76
2022/07/04 02:01:30;;;;;;;6.30;1.60;;;14.80;67.40;;;;;;5021814;28;20028;-75
2022/07/04 02:04:00;;;;;;;2.20;1.20;;;14.70;68.60;;;;;;4994105;28;20478;-76
2022/07/04 02:06:25;;;;;;;1.63;1.10;;;14.60;68.20;;;;;;5027630;28;20051;-76
2022/07/04 02:14:41;;;;;;;5.47;1.63;;;14.60;70.40;;;;;;4937513;28;20105;-72
2022/07/04 02:17:07;;;;;;;1.27;1.10;;;14.60;68.90;;;;;;4989008;28;20033;-72
2022/07/04 02:19:32;;;;;;;2.10;1.10;;;14.70;68.90;;;;;;5007729;28;20043;-73
2022/07/04 02:21:58;;;;;;;2.75;1.00;;;14.50;68.70;;;;;;5024768;28;20036;-74
2022/07/04 02:24:23;;;;;;;1.50;1.17;;;14.60;69.60;;;;;;4997340;28;20022;-73
2022/07/04 02:26:49;;;;;;;3.05;1.10;;;14.50;69.10;;;;;;5008050;28;20084;-73
2022/07/04 02:29:15;;;;;;;2.40;1.30;;;14.60;69.10;;;;;;5041843;28;20046;-73
2022/07/04 02:31:40;;;;;;;1.55;1.13;;;14.60;69.20;;;;;;5008882;28;20520;-72
2022/07/04 02:34:06;;;;;;;1.45;1.00;;;14.50;70.20;;;;;;5007462;28;20037;-73
2022/07/04 02:36:31;;;;;;;1.77;0.90;;;14.50;70.00;;;;;;5008269;28;20542;-73
2022/07/04 02:38:57;;;;;;;3.33;1.38;;;14.40;69.60;;;;;;4995391;28;20033;-74
2022/07/04 02:41:22;;;;;;;2.70;1.50;;;14.40;70.90;;;;;;5008751;28;20025;-74
2022/07/04 02:43:48;;;;;;;1.52;1.00;;;14.30;72.20;;;;;;5007436;28;20033;-74
2022/07/04 02:46:14;;;;;;;2.03;1.10;;;14.50;71.00;;;;;;5005592;28;20051;-73
2022/07/04 02:48:39;;;;;;;3.60;0.93;;;14.40;71.40;;;;;;5005952;28;20033;-74
2022/07/04 02:51:05;;;;;;;3.03;1.40;;;14.30;70.70;;;;;;5019092;28;20025;-73
2022/07/04 02:53:30;;;;;;;2.53;1.00;;;14.30;71.30;;;;;;5006296;28;20488;-73
2022/07/04 02:55:56;;;;;;;2.42;1.25;;;14.20;71.10;;;;;;5025663;28;20028;-74
2022/07/04 02:58:21;;;;;;;3.97;1.50;;;14.20;70.20;;;;;;5007921;28;20036;-73
2022/07/04 03:00:47;;;;;;;4.57;1.70;;;14.20;71.30;;;;;;5022586;28;20048;-73
2022/07/04 03:03:13;;;;;;;5.00;1.25;;;14.30;72.00;;;;;;5021980;28;20033;-73
2022/07/04 03:05:38;;;;;;;2.60;0.90;;;14.00;70.50;;;;;;5011926;28;20098;-73
2022/07/04 03:08:05;;;;;;;3.33;1.23;;;14.10;70.70;;;;;;5019914;28;20037;-73
2022/07/04 03:10:30;;;;;;;3.10;1.20;;;14.40;71.20;;;;;;5012008;28;20456;-74
2022/07/04 03:12:56;;;;;;;2.40;1.90;;;14.20;71.00;;;;;;5019430;28;20057;-74
2022/07/04 03:15:22;;;;;;;2.40;1.67;;;14.00;72.40;;;;;;5011566;28;20025;-73
2022/07/04 03:17:47;;;;;;;3.90;1.40;;;13.90;71.40;;;;;;4994831;28;20041;-73
2022/07/04 03:20:13;;;;;;;6.22;1.92;;;13.80;71.70;;;;;;5039968;28;20128;-73
2022/07/04 03:22:38;;;;;;;4.00;1.45;;;13.80;72.00;;;;;;5007573;28;20037;-74
2022/07/04 03:25:05;;;;;;;3.92;1.77;;;13.80;72.80;;;;;;5024152;28;20064;-73
2022/07/04 03:27:30;;;;;;;1.85;1.30;;;13.80;72.40;;;;;;4995613;28;20056;-73
2022/07/04 03:29:56;;;;;;;3.08;1.73;;;13.90;72.50;;;;;;5025031;28;20049;-73
2022/07/04 03:32:21;;;;;;;2.35;1.33;;;13.80;71.20;;;;;;5022787;28;20033;-74
2022/07/04 03:34:47;;;;;;;2.92;1.13;;;13.70;71.50;;;;;;4992642;28;20044;-73
2022/07/04 03:37:12;;;;;;;2.95;1.50;;;13.90;73.30;;;;;;5023279;28;20551;-73
2022/07/04 03:39:38;;;;;;;2.88;1.63;;;13.70;72.70;;;;;;5022643;28;20097;-73
2022/07/04 03:42:04;;;;;;;2.17;1.17;;;13.70;72.70;;;;;;5026336;28;20025;-73
2022/07/04 03:44:29;;;;;;;1.40;1.27;;;13.90;73.30;;;;;;5009759;28;20060;-72
2022/07/04 03:46:55;;;;;;;1.77;1.20;;;13.90;73.60;;;;;;5007721;28;20041;-73
2022/07/04 03:49:20;;;;;;;2.08;1.60;;;13.90;74.00;;;;;;5023302;28;20021;-73
2022/07/04 03:51:46;;;;;;;2.83;1.75;;;13.70;73.70;;;;;;5022694;28;20040;-73
2022/07/04 03:54:12;;;;;;;5.45;2.10;;;13.70;74.20;;;;;;5018969;28;20083;-73
2022/07/04 03:56:37;;;;;;;3.60;1.95;;;13.50;72.70;;;;;;5006390;28;20035;-74
2022/07/04 03:59:03;;;;;;;5.07;2.58;;;13.40;73.00;;;;;;5009039;28;20139;-73
2022/07/04 04:01:29;;;;;;;3.33;2.03;;;13.30;77.60;;;;;;5018530;28;20079;-73
2022/07/04 04:06:39;;;;;;;6.40;1.85;;;13.30;74.20;;;;;;5040110;28;20225;-73
2022/07/04 04:09:04;;;;;;;4.18;2.10;;;13.40;74.70;;;;;;5021038;28;20029;-73
2022/07/04 04:11:31;;;;;;;6.22;2.58;;;13.40;73.60;;;;;;5024292;28;20110;-74
2022/07/04 04:13:56;;;;;;;5.70;2.40;;;13.40;73.30;;;;;;5008186;28;20397;-73
2022/07/04 04:16:22;;;;;;;5.43;2.55;;;13.50;72.90;;;;;;5007353;28;20036;-74
2022/07/04 04:18:47;;;;;;;2.72;2.53;;;13.70;73.90;;;;;;5023282;28;20039;-74
2022/07/04 04:21:13;;;;;;;5.32;2.38;;;13.80;73.30;;;;;;5008541;28;20029;-73
2022/07/04 04:23:38;;;;;;;2.15;1.85;;;13.80;73.20;;;;;;5005470;28;20072;-73
2022/07/04 04:26:04;;;;;;;2.55;2.35;;;14.00;73.80;;;;;;5019743;28;20408;-73
2022/07/04 04:28:29;;;;;;;3.75;2.03;;;14.20;73.60;;;;;;5022375;28;20624;-73
2022/07/04 04:30:55;;;;;;;5.75;3.00;;;14.30;73.30;;;;;;5018764;28;20479;-73
2022/07/04 04:33:21;;;;;;;6.05;2.20;;;14.50;73.30;;;;;;5007402;28;20462;-74
2022/07/04 04:35:46;;;;;;;3.80;2.60;;;14.60;72.50;;;;;;4994385;28;20056;-73
2022/07/04 04:38:12;;;;;;;4.40;1.67;;;14.80;72.50;;;;;;5020772;28;20033;-74
2022/07/04 04:40:37;;;;;;;4.18;1.88;;;15.10;71.20;;;;;;5041662;28;20034;-72
2022/07/04 04:43:03;;;;;;;4.75;2.60;;;15.20;71.20;;;;;;5021793;28;20388;-73
2022/07/04 04:45:28;;;;;;;2.42;1.75;;;15.40;70.80;;;;;;5041508;28;20044;-73
2022/07/04 04:47:54;;;;;;;4.68;2.55;;;15.60;71.20;;;;;;5022201;28;20033;-73
2022/07/04 04:50:20;;;;;;;4.18;1.90;;;15.80;70.70;;;;;;5020033;28;20025;-73
2022/07/04 04:52:46;;;;;;;8.15;2.40;;;16.00;70.70;;;;;;5035552;28;20512;-74
2022/07/04 04:55:11;;;;;;;3.63;2.17;;;16.10;71.10;;;;;;5023588;28;20033;-73
2022/07/04 04:57:37;;;;;;;2.72;1.73;;;16.40;71.20;;;;;;4994051;28;20029;-73
2022/07/04 05:00:04;;;;;;;8.80;3.22;;;16.60;69.90;;;;;;5026429;28;20465;-72
2022/07/04 05:02:30;;;;;;;5.45;2.60;;;16.80;70.10;;;;;;5026898;28;20037;-72
2022/07/04 05:04:55;;;;;;;6.93;2.30;;;17.00;71.80;;;;;;5024513;28;20087;-72
2022/07/04 05:07:21;;;;;;;3.42;2.10;;;17.20;70.50;;;;;;5028027;28;20029;-73
2022/07/04 05:09:46;;;;;;;4.75;2.78;;;17.40;70.10;;;;;;5010980;28;20025;-72
2022/07/04 05:12:12;;;;;;;6.65;2.80;;;17.60;69.10;;;;;;5022816;28;20064;-72
2022/07/04 05:14:38;;;;;;;8.10;2.13;;;17.90;72.00;;;;;;4996590;28;20029;-72
2022/07/04 05:17:04;;;;;;;5.03;3.13;;;18.20;72.00;;;;;;5006436;28;20484;-73
2022/07/04 05:19:29;;;;;;;5.68;2.70;;;18.40;71.10;;;;;;5022458;28;20066;-73
2022/07/04 05:21:55;;;;;;;3.92;2.45;;;18.60;71.30;;;;;;5011299;28;20456;-72
2022/07/04 05:24:21;;;;;;;8.45;2.78;;;18.90;70.90;;;;;;5025563;28;20620;-73
2022/07/04 05:26:46;;;;;;;4.45;2.20;;;19.10;70.70;;;;;;5021992;28;20048;-73
2022/07/04 05:29:12;;;;;;;5.00;1.85;;;19.40;71.20;;;;;;4995777;28;20113;-74
2022/07/04 05:31:38;;;;;;;5.10;2.33;;;19.60;70.00;;;;;;5021402;28;20064;-72
2022/07/04 05:34:03;;;;;;;2.13;1.63;;;19.80;70.00;;;;;;5018973;28;20028;-72
2022/07/04 05:36:29;;;;;;;4.63;2.00;;;20.00;66.60;;;;;;5010439;28;20040;-73
2022/07/04 05:38:54;;;;;;;2.25;1.10;;;20.10;70.10;;;;;;5020991;28;20040;-73
2022/07/04 05:41:20;;;;;;;5.40;2.00;;;20.30;62.80;;;;;;5012201;28;20037;-74
2022/07/04 05:43:45;;;;;;;4.13;2.08;;;20.50;70.10;;;;;;5010096;28;20400;-73
2022/07/04 05:46:11;;;;;;;4.57;1.33;;;20.90;69.90;;;;;;5024367;28;20087;-73
2022/07/04 05:48:37;;;;;;;3.90;1.55;;;21.20;68.90;;;;;;5041707;28;20124;-73
2022/07/04 05:51:03;;;;;;;1.95;1.25;;;21.50;68.50;;;;;;5024987;28;20041;-73
2022/07/04 05:53:29;;;;;;;7.07;1.50;;;21.60;64.70;;;;;;5025890;28;20036;-75
2022/07/04 05:55:54;;;;;;;8.25;1.95;;;21.70;65.40;;;;;;5009989;28;20094;-73
2022/07/04 05:58:20;;;;;;;5.15;1.60;;;22.00;67.70;;;;;;5024096;28;20029;-73
2022/07/04 06:00:45;;;;;;;3.40;1.42;;;22.20;65.10;;;;;;5024090;28;20041;-73
2022/07/04 06:03:11;;;;;;;6.32;2.25;;;22.20;65.90;;;;;;5007437;28;20025;-74
2022/07/04 06:05:36;;;;;;;7.43;2.38;;;22.40;66.70;;;;;;5023785;28;20037;-75
2022/07/04 06:08:02;;;;;;;9.60;2.88;;;22.50;64.60;;;;;;5006064;28;20151;-73
2022/07/04 06:10:28;;;;;;;8.93;4.05;;;22.40;63.60;;;;;;5010212;28;20056;-74
2022/07/04 06:12:54;;;;;;;10.40;5.40;;;22.50;64.60;;;;;;4993828;28;20439;-75
2022/07/04 06:15:19;;;;;;;7.70;3.95;;;22.70;64.90;;;;;;5005576;28;20033;-75
2022/07/04 06:17:45;;;;;;;8.02;2.85;;;22.70;64.10;;;;;;5023589;28;20082;-75
2022/07/04 06:20:11;;;;;;;7.65;3.63;;;23.00;63.80;;;;;;5042472;28;20619;-73
2022/07/04 06:22:46;;;;;;;6.10;3.22;;;23.10;64.00;;;;;;5005817;28;20603;-75
2022/07/04 06:25:16;;;;;;;7.50;3.10;;;23.40;63.70;;;;;;5023274;28;20036;-75
2022/07/04 06:27:42;;;;;;;8.10;2.65;;;23.30;62.80;;;;;;4994671;28;20353;-75
2022/07/04 06:30:08;;;;;;;4.28;2.42;;;23.40;61.40;;;;;;5024521;28;20032;-75
2022/07/04 06:32:43;;;;;;;7.25;2.05;;;23.60;63.20;;;;;;5024687;28;20814;-75
2022/07/04 06:37:53;;;;;;;7.25;2.00;;;24.00;62.30;;;;;;5023420;28;20441;-75
2022/07/04 06:40:19;;;;;;;4.72;1.80;;;24.30;59.70;;;;;;5009678;28;20061;-76
2022/07/04 06:42:45;;;;;;;4.68;2.00;;;24.10;62.80;;;;;;4996657;28;20029;-75
2022/07/04 06:45:10;;;;;;;7.05;2.53;;;23.50;58.60;;;;;;5021689;28;20037;-77
2022/07/04 06:47:36;;;;;;;2.88;1.17;;;23.20;62.90;;;;;;4991646;28;20653;-76
2022/07/04 06:50:01;;;;;;;6.32;1.50;;;23.60;61.60;;;;;;4994524;28;20547;-75
2022/07/04 06:52:27;;;;;;;8.13;1.92;;;24.60;61.70;;;;;;5023296;28;20029;-75
2022/07/04 06:54:53;;;;;;;7.10;1.70;;;24.80;60.50;;;;;;5008250;28;20040;-75
2022/07/04 06:57:18;;;;;;;4.40;1.95;;;25.00;59.40;;;;;;5024173;28;20039;-76
2022/07/04 06:59:44;;;;;;;6.18;1.52;;;25.10;59.00;;;;;;5010820;28;20068;-75
2022/07/04 07:02:09;;;;;;;3.72;1.63;;;25.20;58.90;;;;;;5009450;28;20029;-75
2022/07/04 07:04:35;;;;;;;5.45;1.58;;;25.50;57.50;;;;;;4993470;28;20079;-75
2022/07/04 07:07:00;;;;;;;6.70;1.40;;;25.70;59.30;;;;;;5011022;28;20037;-79
2022/07/04 07:09:26;;;;;;;3.55;1.58;;;25.60;57.70;;;;;;5026146;28;20405;-78
2022/07/04 07:11:51;;;;;;;3.20;1.17;;;25.80;57.30;;;;;;5007316;28;20112;-80
2022/07/04 07:14:17;;;;;;;4.30;1.63;;;25.90;55.90;;;;;;5004940;28;20044;-78
2022/07/04 07:16:42;;;;;;;5.40;1.50;;;25.30;58.40;;;;;;4991866;28;20032;-80
2022/07/04 07:19:08;;;;;;;3.58;1.55;;;25.70;58.00;;;;;;5022638;28;20026;-80
2022/07/04 07:21:34;;;;;;;5.03;1.60;;;25.80;57.80;;;;;;5024865;28;20036;-80
2022/07/04 07:24:00;;;;;;;5.65;1.73;;;26.30;57.10;;;;;;5006600;28;20029;-80
2022/07/04 07:26:26;;;;;;;4.30;1.35;;;26.70;56.90;;;;;;5007880;28;20519;-78
2022/07/04 07:28:51;;;;;;;3.53;1.10;;;27.20;54.90;;;;;;5006112;28;20067;-78
2022/07/04 07:31:17;;;;;;;1.83;1.10;;;27.20;54.70;;;;;;5021730;28;20215;-81
2022/07/04 07:33:42;;;;;;;1.70;0.77;;;27.30;54.40;;;;;;5004972;28;20082;-79
2022/07/04 07:36:08;;;;;;;2.65;1.00;;;27.20;53.80;;;;;;5022257;28;20057;-78
2022/07/04 07:38:34;;;;;;;1.65;0.80;;;27.20;53.20;;;;;;4989459;28;20438;-77
2022/07/04 07:40:59;;;;;;;2.58;0.70;;;27.30;52.90;;;;;;5003554;28;20032;-79
2022/07/04 07:43:25;;;;;;;4.57;0.73;;;27.30;52.80;;;;;;5016515;28;20128;-79
2022/07/04 07:45:51;;;;;;;5.15;0.75;;;27.60;52.00;;;;;;5005861;28;20045;-78
2022/07/04 07:48:16;;;;;;;2.97;0.88;;;28.00;51.20;;;;;;5006556;28;20124;-79
2022/07/04 07:50:42;;;;;;;1.00;0.70;;;27.70;50.60;;;;;;5040714;28;20064;-78
2022/07/04 07:53:08;;;;;;;2.70;0.70;;;26.20;51.10;;;;;;4984940;28;20034;-78
2022/07/04 07:55:33;;;;;;;1.70;0.70;;;26.70;52.80;;;;;;5018446;28;20540;-79
2022/07/04 07:57:59;;;;;;;2.42;0.90;;;27.00;53.40;;;;;;5018638;28;20373;-79
2022/07/04 08:00:25;;;;;;;2.08;0.75;;;26.80;52.30;;;;;;4993751;28;20384;-78
2022/07/04 08:05:35;;;;;;;3.15;0.73;;;27.80;49.50;;;;;;5024877;28;20039;-79
2022/07/04 08:08:01;;;;;;;3.28;0.90;;;28.30;49.60;;;;;;5005427;28;20021;-78
2022/07/04 08:10:26;;;;;;;1.17;0.57;;;28.20;49.30;;;;;;5002448;28;20047;-79
2022/07/04 08:12:52;;;;;;;3.08;0.80;;;28.00;49.10;;;;;;5021430;28;20037;-79
2022/07/04 08:15:18;;;;;;;1.20;0.63;;;28.00;48.50;;;;;;5008399;28;20087;-79
2022/07/04 08:17:44;;;;;;;1.65;0.40;;;28.40;49.00;;;;;;5008273;28;20544;-80
2022/07/04 08:20:10;;;;;;;12.38;1.50;;;28.90;48.50;;;;;;5021468;28;20072;-80
2022/07/04 08:22:36;;;;;;;2.20;0.50;;;28.90;48.00;;;;;;5009799;28;20556;-79
2022/07/04 08:25:01;;;;;;;1.42;0.60;;;29.50;47.90;;;;;;4993742;28;20022;-79
2022/07/04 08:27:27;;;;;;;1.42;0.60;;;29.40;47.20;;;;;;5024242;28;20120;-80
2022/07/04 08:29:53;;;;;;;0.95;0.73;;;29.70;46.80;;;;;;5022207;28;20021;-80
2022/07/04 08:32:18;;;;;;;4.03;0.63;;;29.60;46.40;;;;;;5023166;28;20060;-80
2022/07/04 08:34:44;;;;;;;2.55;0.40;;;29.70;45.70;;;;;;5011683;28;20021;-79
2022/07/04 08:37:09;;;;;;;3.30;0.60;;;29.70;46.20;;;;;;5007011;28;20498;-80
2022/07/04 08:39:35;;;;;;;2.05;0.63;;;29.80;45.10;;;;;;5022431;28;20029;-80
2022/07/04 08:42:03;;;;;;;2.65;0.52;;;29.60;45.90;;;;;;5019046;28;20489;-79
2022/07/04 08:44:29;;;;;;;2.40;0.82;;;29.90;45.20;;;;;;5010095;28;20037;-80
2022/07/04 08:46:54;;;;;;;5.00;0.90;;;29.60;45.30;;;;;;5007646;28;20029;-80
2022/07/04 08:49:30;;;;;;;0.70;0.60;;;29.50;46.50;;;;;;5005703;28;20508;-81
2022/07/04 08:52:05;;;;;;;1.55;0.60;;;29.70;45.60;;;;;;4994025;28;20109;-81
2022/07/04 08:59:59;;;;;;;2.85;0.85;;;30.30;44.90;;;;;;5013746;28;20067;-81
2022/07/04 09:02:29;;;;;;;2.45;0.70;;;30.10;45.80;;;;;;5021321;28;20052;-82
2022/07/04 09:04:55;;;;;;;4.03;1.10;;;30.30;45.90;;;;;;5019032;28;20038;-81
2022/07/04 09:07:20;;;;;;;5.95;0.77;;;30.40;45.60;;;;;;5006966;28;20025;-80
2022/07/04 09:09:46;;;;;;;2.97;0.93;;;30.50;45.00;;;;;;5010280;28;20499;-81
2022/07/04 09:12:11;;;;;;;1.58;0.35;;;30.50;45.00;;;;;;5009687;28;20403;-81
2022/07/04 09:14:38;;;;;;;1.85;0.57;;;30.60;45.00;;;;;;5018433;28;20033;-81
2022/07/04 09:17:04;;;;;;;4.07;0.80;;;30.70;44.60;;;;;;5023826;28;20036;-82
2022/07/04 09:19:30;;;;;;;2.80;0.77;;;31.40;43.30;;;;;;5010020;28;20587;-82
2022/07/04 09:21:55;;;;;;;2.28;0.85;;;31.10;43.30;;;;;;5020828;28;20052;-83
2022/07/04 09:24:45;;;;;;;1.08;0.80;;;30.60;43.70;;;;;;5005602;28;20029;-81
2022/07/04 09:27:11;;;;;;;8.63;0.90;;;30.50;45.20;;;;;;5024808;28;20037;-81
2022/07/04 09:29:53;;;;;;;1.70;1.05;;;31.00;44.10;;;;;;5025511;28;20040;-81
2022/07/04 09:32:37;;;;;;;1.52;0.70;;;31.50;43.20;;;;;;5011076;28;20033;-81
2022/07/04 09:35:04;;;;;;;2.78;0.70;;;31.70;42.60;;;;;;5007921;28;20484;-80
2022/07/04 09:37:37;;;;;;;3.45;0.80;;;32.00;41.60;;;;;;5019002;28;20488;-80
2022/07/04 09:40:10;;;;;;;2.28;0.63;;;31.90;42.00;;;;;;5009456;28;20061;-80
2022/07/04 09:42:40;;;;;;;3.70;0.90;;;32.00;42.00;;;;;;5006512;28;20033;-79
2022/07/04 09:45:07;;;;;;;2.20;0.75;;;31.30;41.50;;;;;;5023898;28;20124;-78
2022/07/04 09:47:33;;;;;;;1.63;0.52;;;31.60;41.50;;;;;;5012197;28;20029;-78
2022/07/04 09:50:11;;;;;;;1.92;0.65;;;31.80;42.90;;;;;;5007115;28;20025;-78
2022/07/04 09:52:55;;;;;;;3.92;0.90;;;32.20;41.70;;;;;;5041493;28;20520;-78
2022/07/04 09:55:34;;;;;;;3.22;0.90;;;32.90;40.60;;;;;;5026793;28;20029;-78
2022/07/04 09:58:02;;;;;;;1.27;0.55;;;32.80;40.40;;;;;;5010837;28;20025;-78
2022/07/04 10:00:32;;;;;;;2.53;0.52;;;32.60;40.00;;;;;;5008909;28;20086;-78
2022/07/04 10:03:25;;;;;;;1.23;0.60;;;32.40;40.90;;;;;;5023836;28;20511;-78
2022/07/04 10:06:07;;;;;;;3.75;0.93;;;32.60;40.90;;;;;;5037615;28;20404;-78
2022/07/04 10:08:33;;;;;;;1.33;0.98;;;33.00;38.70;;;;;;5023164;28;20041;-78
2022/07/04 10:10:59;;;;;;;1.35;1.00;;;33.20;39.40;;;;;;5006477;28;20072;-78
2022/07/04 10:13:25;;;;;;;0.98;0.57;;;33.30;38.90;;;;;;5012561;28;20040;-78
2022/07/04 10:15:51;;;;;;;4.30;0.80;;;33.40;39.20;;;;;;5026613;28;20033;-78
2022/07/04 10:18:21;;;;;;;2.70;0.88;;;33.30;38.50;;;;;;5023426;28;20036;-78
2022/07/04 10:20:49;;;;;;;1.88;0.70;;;33.40;38.60;;;;;;5003489;28;20038;-78
2022/07/04 10:23:15;;;;;;;2.45;0.68;;;33.40;38.50;;;;;;5023376;28;20025;-78
2022/07/04 10:25:41;;;;;;;2.50;0.90;;;33.50;38.30;;;;;;5010334;28;20148;-79
2022/07/04 10:28:07;;;;;;;5.15;0.77;;;33.70;38.30;;;;;;5020262;28;20033;-78
2022/07/04 10:30:35;;;;;;;6.85;1.20;;;33.60;39.60;;;;;;5021734;28;20032;-78
2022/07/04 10:33:07;;;;;;;2.15;0.65;;;33.90;37.70;;;;;;5023190;28;20544;-78
2022/07/04 10:35:54;;;;;;;2.47;1.00;;;33.90;38.00;;;;;;5009805;28;20029;-78
2022/07/04 10:38:27;;;;;;;2.60;0.75;;;34.10;37.50;;;;;;5043104;28;20033;-78
2022/07/04 10:41:02;;;;;;;4.13;0.82;;;34.10;38.30;;;;;;4994922;28;20775;-78
2022/07/04 10:45:58;;;;;;;4.47;0.90;;;34.30;39.60;;;;;;5040036;28;20029;-78
2022/07/04 10:48:24;;;;;;;2.05;1.38;;;34.80;37.00;;;;;;5005810;28;20041;-78
2022/07/04 10:51:06;;;;;;;3.08;0.75;;;35.00;37.00;;;;;;5021581;28;20032;-77
2022/07/04 10:53:32;;;;;;;1.95;0.80;;;34.90;37.70;;;;;;5007412;28;20041;-77
2022/07/04 10:56:19;;;;;;;2.35;0.85;;;34.90;37.70;;;;;;5009355;28;20040;-77
2022/07/04 10:58:45;;;;;;;2.53;0.70;;;35.30;36.40;;;;;;5024776;28;20033;-77
2022/07/04 11:01:14;;;;;;;4.32;0.98;;;35.60;36.90;;;;;;5024135;28;20033;-77
2022/07/04 11:03:46;;;;;;;4.38;1.00;;;35.50;37.40;;;;;;5008964;28;20120;-77
2022/07/04 11:06:35;;;;;;;2.55;0.90;;;35.60;37.30;;;;;;5024853;28;20029;-77
2022/07/04 11:09:19;;;;;;;3.90;1.20;;;35.60;36.60;;;;;;5025841;28;20544;-77
2022/07/04 11:11:55;;;;;;;2.15;1.17;;;35.40;36.90;;;;;;5024734;28;20045;-77
2022/07/04 11:14:37;;;;;;;4.57;1.20;;;35.40;36.30;;;;;;5032023;28;20124;-77
2022/07/04 11:17:04;;;;;;;2.28;1.10;;;35.20;36.20;;;;;;5010918;28;20025;-77
2022/07/04 11:19:29;;;;;;;1.10;0.82;;;35.20;36.20;;;;;;5008998;28;22419;-77
2022/07/04 11:21:56;;;;;;;2.72;0.82;;;35.30;36.00;;;;;;5021612;28;20505;-77
2022/07/04 11:24:22;;;;;;;1.88;0.70;;;35.10;37.10;;;;;;5010552;28;20052;-77
2022/07/04 11:26:48;;;;;;;0.95;0.80;;;35.10;36.90;;;;;;5006144;28;20045;-77
2022/07/04 11:29:14;;;;;;;2.33;0.80;;;35.40;36.70;;;;;;5007959;28;20108;-77
2022/07/04 11:31:44;;;;;;;2.08;0.90;;;35.60;36.90;;;;;;4994248;28;20556;-77
2022/07/04 11:34:10;;;;;;;4.45;1.10;;;35.90;36.60;;;;;;5009802;28;20052;-77
2022/07/04 11:36:37;;;;;;;3.40;0.93;;;36.20;35.90;;;;;;5019299;28;20037;-77
2022/07/04 11:39:07;;;;;;;3.45;0.90;;;36.40;35.80;;;;;;4993516;28;20029;-78
2022/07/04 11:47:12;;;;;;;1.48;0.68;;;36.70;35.10;;;;;;5011328;28;20110;-77
2022/07/04 11:49:49;;;;;;;2.60;0.80;;;36.80;34.40;;;;;;5041658;28;20072;-77
2022/07/04 11:52:16;;;;;;;1.35;0.55;;;37.00;34.80;;;;;;5023775;28;20067;-77
2022/07/04 11:54:42;;;;;;;2.30;0.70;;;37.30;34.20;;;;;;4994544;28;20037;-78
2022/07/04 11:57:13;;;;;;;3.88;0.70;;;37.40;34.10;;;;;;5009382;28;20041;-78
2022/07/04 11:59:38;;;;;;;2.17;0.70;;;37.50;33.70;;;;;;5025484;28;20041;-78
2022/07/04 12:02:12;;;;;;;1.83;0.88;;;37.50;34.20;;;;;;5006145;28;20036;-78
2022/07/04 12:04:41;;;;;;;3.47;0.82;;;37.20;33.50;;;;;;4993326;28;20099;-78
2022/07/04 12:07:26;;;;;;;2.15;0.82;;;36.90;32.90;;;;;;5004733;28;20367;-78
2022/07/04 12:09:53;;;;;;;1.40;0.70;;;36.70;32.80;;;;;;5007423;28;20033;-78
2022/07/04 12:12:19;;;;;;;3.20;0.80;;;36.50;33.00;;;;;;5006505;28;20044;-78
2022/07/04 12:15:04;;;;;;;2.17;0.65;;;36.40;33.40;;;;;;5006003;28;20033;-78
2022/07/04 12:17:31;;;;;;;2.13;0.88;;;36.40;33.40;;;;;;5009146;28;20037;-78
2022/07/04 12:20:01;;;;;;;2.00;0.73;;;36.30;32.70;;;;;;5003769;28;20029;-78
2022/07/04 12:22:52;;;;;;;1.58;0.68;;;36.00;33.50;;;;;;5006747;28;20774;-78
2022/07/04 12:25:29;;;;;;;3.90;0.88;;;35.80;34.00;;;;;;5022851;28;20041;-78
2022/07/04 12:27:59;;;;;;;0.73;0.50;;;36.00;34.60;;;;;;5001359;28;20077;-78
2022/07/04 12:30:26;;;;;;;1.00;0.70;;;36.20;34.30;;;;;;5005120;28;20025;-78
2022/07/04 12:32:52;;;;;;;1.92;0.73;;;36.30;34.20;;;;;;4993080;28;20025;-78
2022/07/04 12:35:42;;;;;;;3.05;0.88;;;36.40;33.80;;;;;;5008940;28;20068;-78
2022/07/04 12:38:16;;;;;;;6.07;0.98;;;36.50;34.20;;;;;;5003581;28;20037;-77
2022/07/04 12:41:05;;;;;;;2.60;0.70;;;36.70;34.50;;;;;;5018629;28;20082;-78
2022/07/04 12:43:40;;;;;;;3.10;0.60;;;36.60;34.00;;;;;;5022394;28;20405;-78
2022/07/04 12:46:07;;;;;;;1.98;0.68;;;36.80;33.30;;;;;;5017569;28;20060;-78
2022/07/04 12:48:33;;;;;;;1.75;0.70;;;37.10;33.30;;;;;;5018826;28;20033;-78
2022/07/04 12:51:13;;;;;;;2.67;0.60;;;37.20;33.10;;;;;;5015576;28;20048;-78
2022/07/04 12:53:39;;;;;;;1.73;1.27;;;37.40;33.30;;;;;;5005131;28;20033;-77
2022/07/04 12:56:05;;;;;;;4.93;0.65;;;37.50;32.10;;;;;;5007279;28;20515;-78
2022/07/04 12:58:31;;;;;;;3.95;0.80;;;37.50;32.40;;;;;;5022630;28;20099;-78
2022/07/04 13:00:57;;;;;;;2.15;0.77;;;37.30;32.40;;;;;;5026581;28;20057;-78
2022/07/04 13:03:23;;;;;;;1.77;0.70;;;37.50;32.60;;;;;;5003585;28;20121;-78
2022/07/04 13:05:48;;;;;;;3.58;0.77;;;37.70;31.70;;;;;;5005304;28;20032;-78
2022/07/04 13:08:14;;;;;;;1.55;0.63;;;37.80;31.90;;;;;;5021826;28;20033;-78
2022/07/04 13:10:40;;;;;;;0.90;0.50;;;37.70;31.90;;;;;;5021233;28;20190;-75
2022/07/04 13:13:05;;;;;;;0.93;0.50;;;37.80;32.10;;;;;;5018624;28;20496;-76
2022/07/04 13:15:31;;;;;;;0.98;0.68;;;38.10;32.50;;;;;;4991707;28;20488;-78
2022/07/04 13:17:56;;;;;;;2.10;0.70;;;38.30;32.50;;;;;;5009143;28;20032;-78